Waupaca, Wisconsin
Current Conditions -  °F | °C
As of 3:15 AM on Wednesday 28 Jan 2015 (Local Time) from KPCZ Reporting Station
Overcast Overcast  
Wind Chill: 20°   Ceiling: 2100
Heat Index: 26°   Visibility: 10mi
Dew Point: 19°   Wind: 5mph
Humidity: 78%   Direction: 120°ESE
Pressure: 30.21"   Gusts: NA
Location:  44.36°N, 89.09°W
Report Text: KPCZ 280915Z AUTO 12004KT 10SM OVC021 M04/M07 A3021 RMK AO2 T10361070
Loading
Personal Weather Stations






























Interactive Weather Map New forecast layout! Learn more

10-Day Weather Forecast

Advertisements
Track Severe Weather on mobile